Mililani, HI

5:31 AM HST on February 14, 2016 (GMT -1000)
MesoWest | | Change Station
CLOSE
Current Station
Personal Weather Station
Location: Wheeler Army Airfield, HI
Elevation: 867 ft
Nearby Weather Stations

Elev 867 ft 21.48 °N, 158.02 °W | Updated 1 hour ago

Partly Cloudy
Partly Cloudy
0.0 °F
Feels Like 0.0 °F
N
3.0
Wind Variable Wind from NNW
Gusts 6.0 mph

Today
High -- | Low -- °F
--% Chance of Precip.
Yesterday
High -- | Low -- °F
Precip. -- in
Pressure 30.01 in
Visibility 10.0 miles
Clouds Few 2600 ft
Dew Point Not available.
Humidity Not available.
Rainfall in
Snow Depth Not available.
7:03 AM 6:29 PM
Waxing Crescent, 42% visible
METAR PHHI 141358Z AUTO 29003KT 10SM FEW026 18/16 A3003 RMK AO2 SLP160 T01780163 $
Pressure 30.01 in
Visibility 10.0 miles
Clouds Few 2600 ft
Dew Point Not available.
Humidity Not available.
Rainfall in
Snow Depth Not available.
7:03 AM 6:29 PM
Waxing Crescent, 42% visible
METAR PHHI 141358Z AUTO 29003KT 10SM FEW026 18/16 A3003 RMK AO2 SLP160 T01780163 $

10-Day Weather Forecast

Almanac

Astronomy

Feb. 14, 2016 Rise Set
Actual Time
Civil Twilight
Nautical Twilight
Astronomical Twilight
Moon
Length of Visible Light
Length of Day
Tomorrow will be .
, % of the Moon is Illuminated

Today's Extremes

State Highs State Lows

Community

WunderPhotos

Upload Photos

1,892,795 photos uploaded!

WunderBlog® & News

Nearby

Air Quality

  Air Quality AQ Index Pollutant
Not available.

Snow Depth

Station Depth Elevation

Earthquake Activity

City Distance Mag. Time & Date
Minimum magnitude displayed is 2.5.

Coastal Water Temperatures

Place Temperature

Stations

Nearby Weather Stations

Station Location Temp. Windchill Dew Point Humidity Wind Precip. Elev Updated Type
                   

Watches & Warnings

There are currently no watches in effect.